Santo Pipo, Argentina
Current Conditions -  °F | °C
As of 12:00 AM on Friday 28 Nov 2014 (Local Time) from SARP Reporting Station
Clear Clear  
Wind Chill: 77°   Ceiling: Unl
Heat Index: 79°   Visibility: 6mi
Dew Point: 64°   Wind: 8mph
Humidity: 65%   Direction: 140°SE
Pressure: 29.91"   Gusts: NA
Location:  27.13°S, 55.42°W
Report Text: SARP 280300Z 14007KT CAVOK 25/18 Q1013
Loading
Personal Weather Stations






























Interactive Weather Map New forecast layout! Learn more

10-Day Weather Forecast

Advertisements
Track Severe Weather on mobile